Time;durP1;ratioP1;P1;durP2;ratioP2;P2;SDS_P1;SDS_P2;PMS_P1;PMS_P2;Temp;Humidity;BMP_temperature;BMP_pressure;BME280_temperature;BME280_humidity;BME280_pressure;Samples;Min_cycle;Max_cycle;Signal;HPM_P1;HPM_P2
2021/06/01 00:00:38;;;;;;;;;;;20.30;55.80;;;;;;5053982;28;19969;-72
2021/06/01 00:03:03;;;;;;;;;;;20.30;55.80;;;;;;5061791;28;19927;-72
2021/06/01 00:05:29;;;;;;;;;;;20.30;55.80;;;;;;5061161;28;19996;-72
2021/06/01 00:07:54;;;;;;;;;;;20.30;55.80;;;;;;5053920;28;19927;-72
2021/06/01 00:10:20;;;;;;;;;;;20.30;55.70;;;;;;5044471;28;19920;-72
2021/06/01 00:12:45;;;;;;;;;;;20.30;55.80;;;;;;5044157;28;20344;-72
2021/06/01 00:15:11;;;;;;;;;;;20.30;55.80;;;;;;5062460;28;19920;-72
2021/06/01 00:17:36;;;;;;;;;;;20.30;55.70;;;;;;5062591;28;19924;-72
2021/06/01 00:20:03;;;;;;;;;;;20.30;55.80;;;;;;5062740;28;20275;-72
2021/06/01 00:22:28;;;;;;;;;;;20.30;55.70;;;;;;5033091;28;19927;-72
2021/06/01 00:24:54;;;;;;;;;;;20.30;55.70;;;;;;5054778;28;19924;-71
2021/06/01 00:27:19;;;;;;;;;;;20.30;55.70;;;;;;5062871;28;19920;-72
2021/06/01 00:29:45;;;;;;;;;;;20.30;55.80;;;;;;5061913;28;20529;-72
2021/06/01 00:32:11;;;;;;;;;;;20.30;55.70;;;;;;5027443;28;19917;-71
2021/06/01 00:34:36;;;;;;;;;;;20.30;55.70;;;;;;5044675;28;19916;-72
2021/06/01 00:37:02;;;;;;;;;;;20.30;55.70;;;;;;5062897;28;20565;-72
2021/06/01 00:39:27;;;;;;;;;;;20.30;55.70;;;;;;5045342;28;19920;-72
2021/06/01 00:41:52;;;;;;;;;;;20.30;55.70;;;;;;5064304;28;19916;-72
2021/06/01 00:44:18;;;;;;;;;;;20.30;55.70;;;;;;5064489;28;19916;-72
2021/06/01 00:46:43;;;;;;;;;;;20.30;55.70;;;;;;5062009;28;20002;-71
2021/06/01 00:49:09;;;;;;;;;;;20.30;55.70;;;;;;5037233;28;19924;-72
2021/06/01 00:51:34;;;;;;;;;;;20.30;55.70;;;;;;5062082;28;20385;-72
2021/06/01 00:54:03;;;;;;;;;;;20.30;55.70;;;;;;5043645;28;19924;-71
2021/06/01 00:56:30;;;;;;;;;;;20.30;55.70;;;;;;5062106;28;19924;-71
2021/06/01 00:58:56;;;;;;;;;;;20.30;55.70;;;;;;5043845;28;19923;-71
2021/06/01 01:01:21;;;;;;;;;;;20.30;55.70;;;;;;5059211;28;19916;-71
2021/06/01 01:03:47;;;;;;;;;;;20.30;55.70;;;;;;5066341;28;19947;-71
2021/06/01 01:06:17;;;;;;;;;;;20.30;55.70;;;;;;5030749;28;19917;-71
2021/06/01 01:08:54;;;;;;;;;;;20.20;55.60;;;;;;5062960;28;19994;-72
2021/06/01 01:11:31;;;;;;;;;;;20.30;55.70;;;;;;5046450;28;20078;-71
2021/06/01 01:13:57;;;;;;;;;;;20.30;55.70;;;;;;5065291;28;19916;-72
2021/06/01 01:16:23;;;;;;;;;;;20.20;55.60;;;;;;5065474;28;19920;-72
2021/06/01 01:18:50;;;;;;;;;;;20.20;55.60;;;;;;5066230;28;19994;-72
2021/06/01 01:21:19;;;;;;;;;;;20.30;55.60;;;;;;5065726;28;19948;-72
2021/06/01 01:23:47;;;;;;;;;;;20.30;55.60;;;;;;5067603;28;19924;-73
2021/06/01 01:26:13;;;;;;;;;;;20.20;55.50;;;;;;5085521;28;19916;-72
2021/06/01 01:28:39;;;;;;;;;;;20.20;55.50;;;;;;5039983;28;19943;-72
2021/06/01 01:31:07;;;;;;;;;;;20.30;55.60;;;;;;5065840;28;19924;-71
2021/06/01 01:33:36;;;;;;;;;;;20.20;55.50;;;;;;5042487;28;19925;-72
2021/06/01 01:36:06;;;;;;;;;;;20.20;55.50;;;;;;5036797;28;19920;-72
2021/06/01 01:38:32;;;;;;;;;;;20.20;55.50;;;;;;5044189;28;19988;-72
2021/06/01 01:40:58;;;;;;;;;;;20.20;55.50;;;;;;5047682;28;19950;-72
2021/06/01 01:43:25;;;;;;;;;;;20.30;55.50;;;;;;5049637;28;19962;-72
2021/06/01 01:46:00;;;;;;;;;;;20.20;55.50;;;;;;5049254;28;19920;-72
2021/06/01 01:51:13;;;;;;;;;;;20.20;55.50;;;;;;5052392;28;19961;-72
2021/06/01 01:53:40;;;;;;;;;;;20.20;55.40;;;;;;5049922;28;19925;-73
2021/06/01 01:56:05;;;;;;;;;;;20.20;55.40;;;;;;5067616;28;19991;-72
2021/06/01 01:58:31;;;;;;;;;;;20.20;55.40;;;;;;5077817;28;20413;-73
2021/06/01 02:00:56;;;;;;;;;;;20.20;55.40;;;;;;5068557;28;19905;-72
2021/06/01 02:03:22;;;;;;;;;;;20.20;56.10;;;;;;5060913;28;19920;-72
2021/06/01 02:05:47;;;;;;;;;;;20.20;55.40;;;;;;5065837;28;19917;-72
2021/06/01 02:08:13;;;;;;;;;;;20.20;55.40;;;;;;5047465;28;19924;-72
2021/06/01 02:10:38;;;;;;;;;;;20.20;55.40;;;;;;5043133;28;19916;-72
2021/06/01 02:13:04;;;;;;;;;;;20.20;55.40;;;;;;5064128;28;19928;-72
2021/06/01 02:15:29;;;;;;;;;;;20.20;55.40;;;;;;5047322;28;19924;-72
2021/06/01 02:17:55;;;;;;;;;;;20.20;55.40;;;;;;5065127;28;19930;-72
2021/06/01 02:20:20;;;;;;;;;;;20.20;55.30;;;;;;5065580;28;19916;-72
2021/06/01 02:25:31;;;;;;;;;;;20.20;55.30;;;;;;5042804;28;19966;-72
2021/06/01 02:27:58;;;;;;;;;;;20.20;55.30;;;;;;5064310;28;19917;-71
2021/06/01 02:30:25;;;;;;;;;;;20.20;55.30;;;;;;5046964;28;19920;-72
2021/06/01 02:32:52;;;;;;;;;;;20.20;55.30;;;;;;5046194;28;19999;-72
2021/06/01 02:35:26;;;;;;;;;;;20.20;55.30;;;;;;5024917;28;20411;-72
2021/06/01 02:37:51;;;;;;;;;;;20.20;55.30;;;;;;5077408;28;20553;-72
2021/06/01 02:40:18;;;;;;;;;;;20.20;55.30;;;;;;5058151;28;19988;-72
2021/06/01 02:42:43;;;;;;;;;;;20.20;55.30;;;;;;5065953;28;19920;-72
2021/06/01 02:45:09;;;;;;;;;;;20.20;55.30;;;;;;5046001;28;19970;-72
2021/06/01 02:47:35;;;;;;;;;;;20.20;55.30;;;;;;5045685;28;19921;-72
2021/06/01 02:50:03;;;;;;;;;;;20.20;55.30;;;;;;5045681;28;19942;-71
2021/06/01 02:52:28;;;;;;;;;;;20.20;55.20;;;;;;5063812;28;19923;-73
2021/06/01 02:54:54;;;;;;;;;;;20.10;55.20;;;;;;5046033;28;19924;-72
2021/06/01 02:57:19;;;;;;;;;;;20.20;55.30;;;;;;5064228;28;19920;-73
2021/06/01 02:59:45;;;;;;;;;;;20.10;55.20;;;;;;5063035;28;20406;-72
2021/06/01 03:02:10;;;;;;;;;;;20.20;55.20;;;;;;5044665;28;19920;-72
2021/06/01 03:04:36;;;;;;;;;;;20.10;55.20;;;;;;5044739;28;19916;-72
2021/06/01 03:07:02;;;;;;;;;;;20.20;55.30;;;;;;5044999;28;19921;-72
2021/06/01 03:09:27;;;;;;;;;;;20.10;55.20;;;;;;5063390;28;20401;-71
2021/06/01 03:11:53;;;;;;;;;;;20.10;55.20;;;;;;5063198;28;19916;-73
2021/06/01 03:14:19;;;;;;;;;;;20.10;55.10;;;;;;5062280;28;19920;-71
2021/06/01 03:16:45;;;;;;;;;;;20.10;55.20;;;;;;5064115;28;19929;-71
2021/06/01 03:19:10;;;;;;;;;;;20.10;55.10;;;;;;5062549;28;19921;-71
2021/06/01 03:21:37;;;;;;;;;;;20.10;55.10;;;;;;5062773;28;19917;-71
2021/06/01 03:24:02;;;;;;;;;;;20.10;55.10;;;;;;5062804;28;19940;-70
2021/06/01 03:26:28;;;;;;;;;;;20.10;55.10;;;;;;5062055;28;19955;-71
2021/06/01 03:28:53;;;;;;;;;;;20.10;55.10;;;;;;5061213;28;19916;-71
2021/06/01 03:31:19;;;;;;;;;;;20.10;55.10;;;;;;5056387;28;19921;-71
2021/06/01 03:33:44;;;;;;;;;;;20.10;55.10;;;;;;5060235;28;19954;-71
2021/06/01 03:36:10;;;;;;;;;;;20.10;55.10;;;;;;5062781;28;20366;-71
2021/06/01 03:38:36;;;;;;;;;;;20.10;55.10;;;;;;5063278;28;19920;-71
2021/06/01 03:41:03;;;;;;;;;;;20.10;55.10;;;;;;5062331;28;19917;-71
2021/06/01 03:43:28;;;;;;;;;;;20.10;55.10;;;;;;5041560;28;19963;-71
2021/06/01 03:45:53;;;;;;;;;;;20.10;55.10;;;;;;5045141;28;19948;-71
2021/06/01 03:48:19;;;;;;;;;;;20.10;55.00;;;;;;5063132;28;19962;-71
2021/06/01 03:50:44;;;;;;;;;;;20.10;55.10;;;;;;5062372;28;19927;-70
2021/06/01 03:53:10;;;;;;;;;;;20.10;55.10;;;;;;5027268;28;20432;-70
2021/06/01 03:55:35;;;;;;;;;;;20.10;55.10;;;;;;5044949;28;19916;-70
2021/06/01 03:58:01;;;;;;;;;;;20.10;55.10;;;;;;5061946;28;20007;-70
2021/06/01 04:00:28;;;;;;;;;;;20.10;55.10;;;;;;5045229;28;20340;-70
2021/06/01 04:02:54;;;;;;;;;;;20.00;55.00;;;;;;5045020;28;19917;-70
2021/06/01 04:05:19;;;;;;;;;;;20.10;55.10;;;;;;5062337;28;19942;-70
2021/06/01 04:07:45;;;;;;;;;;;20.10;55.10;;;;;;5044463;28;19917;-71
2021/06/01 04:10:11;;;;;;;;;;;20.00;55.10;;;;;;5061339;28;19959;-70
2021/06/01 04:12:36;;;;;;;;;;;20.10;55.10;;;;;;5044983;28;19913;-71
2021/06/01 04:15:02;;;;;;;;;;;20.10;55.10;;;;;;5044714;28;19916;-71
2021/06/01 04:17:27;;;;;;;;;;;20.00;55.00;;;;;;5063722;28;19924;-71
2021/06/01 04:19:53;;;;;;;;;;;20.10;55.10;;;;;;5063718;28;19920;-71
2021/06/01 04:22:18;;;;;;;;;;;20.00;55.00;;;;;;5045398;28;19920;-70
2021/06/01 04:24:44;;;;;;;;;;;20.00;55.00;;;;;;5063049;28;19924;-71
2021/06/01 04:27:09;;;;;;;;;;;20.00;55.00;;;;;;5061802;28;20333;-69
2021/06/01 04:29:35;;;;;;;;;;;20.10;55.10;;;;;;5064596;28;20252;-69
2021/06/01 04:32:00;;;;;;;;;;;20.00;55.10;;;;;;5063085;28;19921;-71
2021/06/01 04:34:26;;;;;;;;;;;20.00;55.00;;;;;;5046070;28;19923;-71
2021/06/01 04:36:51;;;;;;;;;;;20.10;55.10;;;;;;5048629;28;20478;-71
2021/06/01 04:39:16;;;;;;;;;;;20.10;55.00;;;;;;5067847;28;19916;-71
2021/06/01 04:41:42;;;;;;;;;;;20.10;55.20;;;;;;5067718;28;19973;-72
2021/06/01 04:44:07;;;;;;;;;;;20.10;55.40;;;;;;5067811;28;19921;-72
2021/06/01 04:46:33;;;;;;;;;;;20.10;55.50;;;;;;5066831;28;19971;-72
2021/06/01 04:48:58;;;;;;;;;;;20.10;55.60;;;;;;5067238;28;19912;-72
2021/06/01 04:51:24;;;;;;;;;;;20.10;55.80;;;;;;5066385;28;19924;-71
2021/06/01 04:53:50;;;;;;;;;;;20.10;56.00;;;;;;5065695;28;20374;-71
2021/06/01 04:56:15;;;;;;;;;;;20.10;56.30;;;;;;5048351;28;19938;-73
2021/06/01 04:58:41;;;;;;;;;;;20.10;56.80;;;;;;5047828;28;20382;-72
2021/06/01 05:01:06;;;;;;;;;;;20.10;56.70;;;;;;5047733;28;19944;-71
2021/06/01 05:03:32;;;;;;;;;;;20.10;56.80;;;;;;5046911;28;20370;-73
2021/06/01 05:05:57;;;;;;;;;;;20.10;56.70;;;;;;5064721;28;19928;-73
2021/06/01 05:08:23;;;;;;;;;;;20.10;56.70;;;;;;5047775;28;20064;-72
2021/06/01 05:10:48;;;;;;;;;;;20.10;56.70;;;;;;5064814;28;19921;-73
2021/06/01 05:13:14;;;;;;;;;;;20.10;56.70;;;;;;5047466;28;19917;-70
2021/06/01 05:15:39;;;;;;;;;;;20.10;56.60;;;;;;5048336;28;19940;-71
2021/06/01 05:18:05;;;;;;;;;;;20.10;56.70;;;;;;5065169;28;19930;-69
2021/06/01 05:20:30;;;;;;;;;;;20.10;57.10;;;;;;5048628;28;20388;-70
2021/06/01 05:22:55;;;;;;;;;;;20.10;57.50;;;;;;5066376;28;19913;-69
2021/06/01 05:25:21;;;;;;;;;;;20.20;57.80;;;;;;5060549;28;19921;-69
2021/06/01 05:27:46;;;;;;;;;;;20.10;57.90;;;;;;5061203;28;19955;-69
2021/06/01 05:30:16;;;;;;;;;;;20.20;58.10;;;;;;5060502;28;20592;-69
2021/06/01 05:35:28;;;;;;;;;;;20.20;58.20;;;;;;5048097;28;19951;-69
2021/06/01 05:37:53;;;;;;;;;;;20.20;58.40;;;;;;5063171;28;19916;-69
2021/06/01 05:40:19;;;;;;;;;;;20.20;58.20;;;;;;5062759;28;19921;-69
2021/06/01 05:42:44;;;;;;;;;;;20.20;58.10;;;;;;5063811;28;19920;-70
2021/06/01 05:45:10;;;;;;;;;;;20.20;58.00;;;;;;5063724;28;20424;-70
2021/06/01 05:47:35;;;;;;;;;;;20.20;57.90;;;;;;5063666;28;19913;-70
2021/06/01 05:50:01;;;;;;;;;;;20.20;57.70;;;;;;5063402;28;19986;-70
2021/06/01 05:52:27;;;;;;;;;;;20.20;57.50;;;;;;5063938;28;19924;-70
2021/06/01 05:54:52;;;;;;;;;;;20.20;57.30;;;;;;5064053;28;19917;-69
2021/06/01 05:57:17;;;;;;;;;;;20.20;57.10;;;;;;5063455;28;19951;-70
2021/06/01 05:59:43;;;;;;;;;;;20.20;56.80;;;;;;5063702;28;19917;-69
2021/06/01 06:02:08;;;;;;;;;;;20.20;56.60;;;;;;5064326;28;20317;-71
2021/06/01 06:04:34;;;;;;;;;;;20.20;56.50;;;;;;5063810;28;19962;-69
2021/06/01 06:06:59;;;;;;;;;;;20.20;56.30;;;;;;5062631;28;19956;-69
2021/06/01 06:09:25;;;;;;;;;;;20.20;56.20;;;;;;5064196;28;20397;-69
2021/06/01 06:11:50;;;;;;;;;;;20.20;56.10;;;;;;5062856;28;19948;-69
2021/06/01 06:14:16;;;;;;;;;;;20.20;56.10;;;;;;5063357;28;19920;-69
2021/06/01 06:16:45;;;;;;;;;;;20.20;56.10;;;;;;5063165;28;20332;-69
2021/06/01 06:19:11;;;;;;;;;;;20.20;56.10;;;;;;5054865;28;19917;-70
2021/06/01 06:21:36;;;;;;;;;;;20.20;56.10;;;;;;5062823;28;20282;-69
2021/06/01 06:24:02;;;;;;;;;;;20.20;56.70;;;;;;5057147;28;19924;-69
2021/06/01 06:26:27;;;;;;;;;;;20.20;56.10;;;;;;5045738;28;19942;-70
2021/06/01 06:28:53;;;;;;;;;;;20.10;56.10;;;;;;5063172;28;19923;-70
2021/06/01 06:31:19;;;;;;;;;;;20.20;56.20;;;;;;5062880;28;19916;-69
2021/06/01 06:33:44;;;;;;;;;;;20.10;56.20;;;;;;5063334;28;20011;-70
2021/06/01 06:36:09;;;;;;;;;;;20.10;56.20;;;;;;5063965;28;19912;-70
2021/06/01 06:38:35;;;;;;;;;;;20.10;56.20;;;;;;5045227;28;19927;-70
2021/06/01 06:43:26;;;;;;;;;;;20.10;56.40;;;;;;5062430;28;20003;-69
2021/06/01 06:45:51;;;;;;;;;;;20.10;56.40;;;;;;5062756;28;19923;-70
2021/06/01 06:48:17;;;;;;;;;;;20.10;56.40;;;;;;5062847;28;19921;-70
2021/06/01 06:50:42;;;;;;;;;;;20.10;56.40;;;;;;5062986;28;19940;-70
2021/06/01 06:53:08;;;;;;;;;;;20.10;56.40;;;;;;5062868;28;19920;-70
2021/06/01 06:55:33;;;;;;;;;;;20.10;56.40;;;;;;5064025;28;20695;-69
2021/06/01 06:57:59;;;;;;;;;;;20.10;57.10;;;;;;5046743;28;19916;-70
2021/06/01 07:00:24;;;;;;;;;;;20.10;56.50;;;;;;5046458;28;19931;-70
2021/06/01 07:02:50;;;;;;;;;;;20.10;56.50;;;;;;5063639;28;19921;-70
2021/06/01 07:05:16;;;;;;;;;;;20.10;56.50;;;;;;5045422;28;19912;-70
2021/06/01 07:07:42;;;;;;;;;;;20.10;56.50;;;;;;5062979;28;19920;-69
2021/06/01 07:10:10;;;;;;;;;;;20.10;56.60;;;;;;5064349;28;19921;-69
2021/06/01 07:12:36;;;;;;;;;;;20.10;56.60;;;;;;5065825;28;19912;-69
2021/06/01 07:15:11;;;;;;;;;;;20.10;56.60;;;;;;5064247;28;20378;-69
2021/06/01 07:17:38;;;;;;;;;;;20.10;56.70;;;;;;5058558;28;19923;-69
2021/06/01 07:20:05;;;;;;;;;;;20.10;57.30;;;;;;5062325;28;19927;-70
2021/06/01 07:22:31;;;;;;;;;;;20.00;56.70;;;;;;5062383;28;19917;-70
2021/06/01 07:24:56;;;;;;;;;;;20.00;56.70;;;;;;5062454;28;19982;-70
2021/06/01 07:27:22;;;;;;;;;;;20.00;56.70;;;;;;5061913;28;19926;-68
2021/06/01 07:29:47;;;;;;;;;;;20.00;56.70;;;;;;5061689;28;19921;-70
2021/06/01 07:32:13;;;;;;;;;;;20.10;56.80;;;;;;5061208;28;19948;-70
2021/06/01 07:34:38;;;;;;;;;;;20.00;56.70;;;;;;5043383;28;19952;-72
2021/06/01 07:37:04;;;;;;;;;;;20.10;56.80;;;;;;5062339;28;20288;-70
2021/06/01 07:39:29;;;;;;;;;;;20.00;56.80;;;;;;5064956;28;19952;-70
2021/06/01 07:41:54;;;;;;;;;;;20.10;56.80;;;;;;5064046;28;19917;-70
2021/06/01 07:44:21;;;;;;;;;;;20.00;56.70;;;;;;5064145;28;19921;-70
2021/06/01 07:46:47;;;;;;;;;;;20.00;56.80;;;;;;5064275;28;19913;-70
2021/06/01 07:49:12;;;;;;;;;;;20.00;56.80;;;;;;5063861;28;19919;-70
2021/06/01 07:51:37;;;;;;;;;;;20.10;56.80;;;;;;5063564;28;19917;-70
2021/06/01 07:54:04;;;;;;;;;;;20.10;56.90;;;;;;5064534;28;20320;-71
2021/06/01 07:56:30;;;;;;;;;;;20.00;56.80;;;;;;5064491;28;19920;-70
2021/06/01 07:58:55;;;;;;;;;;;20.00;56.80;;;;;;5063494;28;19923;-70
2021/06/01 08:01:21;;;;;;;;;;;20.00;56.80;;;;;;5064195;28;19970;-70
2021/06/01 08:03:46;;;;;;;;;;;20.00;56.80;;;;;;5064502;28;19913;-70
2021/06/01 08:06:12;;;;;;;;;;;20.00;56.80;;;;;;5064194;28;19913;-70
2021/06/01 08:08:37;;;;;;;;;;;20.00;56.70;;;;;;5064371;28;19912;-69
2021/06/01 08:11:03;;;;;;;;;;;20.00;56.80;;;;;;5045049;28;19920;-70
2021/06/01 08:13:29;;;;;;;;;;;20.00;56.80;;;;;;5064344;28;19970;-70
2021/06/01 08:15:54;;;;;;;;;;;20.00;56.80;;;;;;5064072;28;19916;-70
2021/06/01 08:18:22;;;;;;;;;;;20.00;56.80;;;;;;5063761;28;20553;-70
2021/06/01 08:20:57;;;;;;;;;;;20.00;56.80;;;;;;5063461;28;19920;-70
2021/06/01 08:23:23;;;;;;;;;;;20.00;56.80;;;;;;5063832;28;19920;-70
2021/06/01 08:25:48;;;;;;;;;;;20.00;56.80;;;;;;5064066;28;20564;-70
2021/06/01 08:28:14;;;;;;;;;;;20.00;56.80;;;;;;5063588;28;19934;-70
2021/06/01 08:30:39;;;;;;;;;;;20.00;56.80;;;;;;5063302;28;19916;-70
2021/06/01 08:33:05;;;;;;;;;;;20.00;56.80;;;;;;5064157;28;19916;-70
2021/06/01 08:35:31;;;;;;;;;;;20.00;56.80;;;;;;5045373;28;19939;-70
2021/06/01 08:37:56;;;;;;;;;;;20.00;56.80;;;;;;5063437;28;19920;-70
2021/06/01 08:40:22;;;;;;;;;;;20.00;56.80;;;;;;5045716;28;19912;-70
2021/06/01 08:42:47;;;;;;;;;;;20.00;56.80;;;;;;5063477;28;20099;-70
2021/06/01 08:45:13;;;;;;;;;;;20.00;56.80;;;;;;5063766;28;19917;-71
2021/06/01 08:47:39;;;;;;;;;;;20.00;56.80;;;;;;5063898;28;19916;-70
2021/06/01 08:50:05;;;;;;;;;;;20.00;56.80;;;;;;5063464;28;19919;-71
2021/06/01 08:52:31;;;;;;;;;;;20.00;56.80;;;;;;5063610;28;19951;-72
2021/06/01 08:54:58;;;;;;;;;;;20.00;56.80;;;;;;5063239;28;20294;-70
2021/06/01 08:57:23;;;;;;;;;;;20.00;56.80;;;;;;5063635;28;19923;-68
2021/06/01 08:59:49;;;;;;;;;;;20.00;56.80;;;;;;5063350;28;19916;-70
2021/06/01 09:02:21;;;;;;;;;;;20.00;56.70;;;;;;5063982;28;19913;-70
2021/06/01 09:04:52;;;;;;;;;;;20.00;56.80;;;;;;5087120;22;19931;-58
2021/06/01 09:10:07;;;;;;;;;;;20.00;56.80;;;;;;5066203;28;19912;-56
2021/06/01 09:12:52;;;;;;;;;;;20.00;56.70;;;;;;5069340;28;19916;-57
2021/06/01 09:15:37;;;;;;;;;;;20.00;56.80;;;;;;5073598;28;20377;-56
2021/06/01 09:21:15;;;;;;;;;;;20.00;56.70;;;;;;5072324;28;19919;-56
2021/06/01 09:23:48;;;;;;;;;;;20.00;56.70;;;;;;5084228;28;19912;-56
2021/06/01 09:26:33;;;;;;;;;;;20.00;56.70;;;;;;5047292;28;19916;-56
2021/06/01 09:28:59;;;;;;;;;;;20.00;56.70;;;;;;5070215;28;19912;-58
2021/06/01 09:31:24;;;;;;;;;;;20.00;56.70;;;;;;5072061;28;20715;-57
2021/06/01 09:33:50;;;;;;;;;;;20.00;56.70;;;;;;5071958;28;19916;-57
2021/06/01 09:36:15;;;;;;;;;;;20.00;56.70;;;;;;5066492;28;19916;-57
2021/06/01 09:38:44;;;;;;;;;;;20.00;56.70;;;;;;5064061;28;19919;-56
2021/06/01 09:41:10;;;;;;;;;;;20.00;56.70;;;;;;5050149;28;19921;-58
2021/06/01 09:43:48;;;;;;;;;;;20.00;56.70;;;;;;5041072;28;20493;-56
2021/06/01 09:46:20;;;;;;;;;;;20.00;56.70;;;;;;5049692;28;19955;-57
2021/06/01 09:48:46;;;;;;;;;;;20.00;56.60;;;;;;5066766;28;19912;-56
2021/06/01 09:51:13;;;;;;;;;;;20.00;56.70;;;;;;5075913;28;19912;-58
2021/06/01 09:53:38;;;;;;;;;;;20.00;56.70;;;;;;5078829;28;19912;-58
2021/06/01 09:56:04;;;;;;;;;;;20.00;56.70;;;;;;5065056;28;20361;-57
2021/06/01 09:58:30;;;;;;;;;;;20.10;56.70;;;;;;5074981;28;19963;-58
2021/06/01 10:00:56;;;;;;;;;;;20.00;56.60;;;;;;5075745;28;19926;-58
2021/06/01 10:03:24;;;;;;;;;;;20.10;56.70;;;;;;5067130;28;19956;-58
2021/06/01 10:05:50;;;;;;;;;;;20.00;56.70;;;;;;5055347;28;19912;-58
2021/06/01 10:08:25;;;;;;;;;;;20.00;56.70;;;;;;5079005;28;19912;-58
2021/06/01 10:10:52;;;;;;;;;;;20.00;56.60;;;;;;5057824;28;20343;-57
2021/06/01 10:13:17;;;;;;;;;;;20.10;56.60;;;;;;5076103;28;19938;-58
2021/06/01 10:15:43;;;;;;;;;;;20.10;56.70;;;;;;5055357;28;19916;-56
2021/06/01 10:18:09;;;;;;;;;;;20.10;56.60;;;;;;5070160;28;19920;-58
2021/06/01 10:20:35;;;;;;;;;;;20.10;56.70;;;;;;5070796;28;19912;-57
2021/06/01 10:23:01;;;;;;;;;;;20.00;56.60;;;;;;5066384;28;19924;-58
2021/06/01 10:25:26;;;;;;;;;;;20.00;56.60;;;;;;5041368;28;19912;-57
2021/06/01 10:27:57;;;;;;;;;;;20.10;56.70;;;;;;5079318;28;19947;-58
2021/06/01 10:30:22;;;;;;;;;;;20.10;56.60;;;;;;5073515;28;20281;-58
2021/06/01 10:32:58;;;;;;;;;;;20.10;56.70;;;;;;5081514;28;19918;-57
2021/06/01 10:35:25;;;;;;;;;;;20.10;56.60;;;;;;5058720;28;20301;-57
2021/06/01 10:52:00;;;;;;;;;;;20.10;56.60;;;;;;5071227;28;19942;-58
2021/06/01 10:54:38;;;;;;;;;;;20.10;56.60;;;;;;5075754;28;20415;-57
2021/06/01 10:57:03;;;;;;;;;;;20.10;56.60;;;;;;5074262;28;19939;-58
2021/06/01 10:59:49;;;;;;;;;;;20.10;56.70;;;;;;5074984;28;19912;-56
2021/06/01 11:02:15;;;;;;;;;;;20.10;56.70;;;;;;5061562;28;20370;-58
2021/06/01 11:05:00;;;;;;;;;;;20.10;56.70;;;;;;5061997;28;19960;-60
2021/06/01 11:07:27;;;;;;;;;;;20.10;56.70;;;;;;5069704;28;20016;-57
2021/06/01 11:09:53;;;;;;;;;;;20.10;56.60;;;;;;5070785;28;19912;-57
2021/06/01 11:12:20;;;;;;;;;;;20.20;56.70;;;;;;5074888;28;19912;-58
2021/06/01 11:14:54;;;;;;;;;;;20.20;56.60;;;;;;5057274;28;19916;-58
2021/06/01 11:17:41;;;;;;;;;;;20.20;56.60;;;;;;5078797;28;20328;-58
2021/06/01 11:20:14;;;;;;;;;;;20.20;56.60;;;;;;5072840;28;19917;-58
2021/06/01 11:33:21;;;;;;;;;;;20.20;56.70;;;;;;5005392;28;19944;-62
2021/06/01 11:35:53;;;;;;;;;;;20.20;56.60;;;;;;5005708;28;20369;-60
2021/06/01 11:38:37;;;;;;;;;;;20.20;56.60;;;;;;5009297;28;20522;-62
2021/06/01 11:43:37;;;;;;;;;;;20.20;56.60;;;;;;5001106;28;19913;-60
2021/06/01 11:51:17;;;;;;;;;;;20.30;56.60;;;;;;5000021;28;20051;-62
2021/06/01 11:54:02;;;;;;;;;;;20.20;56.50;;;;;;5006817;28;19936;-62
2021/06/01 11:56:32;;;;;;;;;;;20.30;56.60;;;;;;5011695;28;20349;-60
2021/06/01 12:04:38;;;;;;;;;;;20.30;56.60;;;;;;5014488;28;20372;-62
2021/06/01 12:12:47;;;;;;;;;;;20.30;56.60;;;;;;5002123;28;19920;-60
2021/06/01 12:18:11;;;;;;;;;;;20.30;56.60;;;;;;4998169;28;19933;-62
2021/06/01 12:20:36;;;;;;;;;;;20.30;56.60;;;;;;4997337;28;19983;-61
2021/06/01 12:23:21;;;;;;;;;;;20.30;56.60;;;;;;4995949;28;20528;-60
2021/06/01 12:26:08;;;;;;;;;;;20.30;56.60;;;;;;4994454;28;20558;-61
2021/06/01 12:31:30;;;;;;;;;;;20.30;56.60;;;;;;4961737;28;19919;-59
2021/06/01 12:33:56;;;;;;;;;;;20.30;56.60;;;;;;5013175;28;19946;-59
2021/06/01 12:41:42;;;;;;;;;;;20.30;56.50;;;;;;4997143;28;19920;-62
2021/06/01 12:44:08;;;;;;;;;;;20.40;56.60;;;;;;5008045;28;19921;-60
2021/06/01 12:46:42;;;;;;;;;;;20.40;56.60;;;;;;5016322;28;19923;-59
2021/06/01 13:08:48;;;;;;;;;;;20.40;56.60;;;;;;5005381;28;19913;-61
2021/06/01 13:22:25;;;;;;;;;;;20.40;56.60;;;;;;4998953;28;19972;-61
2021/06/01 13:30:34;;;;;;;;;;;20.50;56.70;;;;;;5011745;28;19948;-59
2021/06/01 13:38:50;;;;;;;;;;;20.50;56.60;;;;;;5012392;28;19932;-60
2021/06/01 13:47:02;;;;;;;;;;;20.50;56.60;;;;;;5004928;28;19963;-59
2021/06/01 13:52:29;;;;;;;;;;;20.50;56.70;;;;;;5003632;28;19924;-63
2021/06/01 13:55:09;;;;;;;;;;;20.50;56.60;;;;;;5007473;28;19917;-62
2021/06/01 14:00:21;;;;;;;;;;;20.50;56.60;;;;;;5002039;28;20435;-60
2021/06/01 14:11:07;;;;;;;;;;;20.60;56.70;;;;;;4999040;28;19944;-61
2021/06/01 14:30:13;;;;;;;;;;;20.60;56.60;;;;;;5018768;28;19924;-63
2021/06/01 14:38:19;;;;;;;;;;;20.60;56.60;;;;;;5015650;28;19924;-60
2021/06/01 14:54:53;;;;;;;;;;;20.60;56.60;;;;;;5013352;28;19932;-60
2021/06/01 14:55:18;;;;;;;;;;;20.70;56.60;;;;;;5006840;28;20469;-61
2021/06/01 15:09:38;;;;;;;;;;;20.70;56.70;;;;;;5008485;28;20401;-60
2021/06/01 15:28:43;;;;;;;;;;;20.70;56.60;;;;;;5019588;28;19994;-59
2021/06/01 15:49:56;;;;;;;;;;;20.80;56.70;;;;;;5031721;28;19922;-61
2021/06/01 15:55:30;;;;;;;;;;;20.80;56.70;;;;;;5057681;28;20434;-61
2021/06/01 16:11:58;;;;;;;;;;;20.90;56.70;;;;;;5038500;28;20752;-60
2021/06/01 16:14:27;;;;;;;;;;;20.90;56.70;;;;;;5056761;28;19931;-60
2021/06/01 16:22:49;;;;;;;;;;;20.90;56.70;;;;;;5028985;28;20439;-61
2021/06/01 16:33:33;;;;;;;;;;;20.90;56.60;;;;;;5037807;28;20043;-61
2021/06/01 16:44:29;;;;;;;;;;;20.90;56.60;;;;;;5037131;28;20422;-61
2021/06/01 17:03:46;;;;;;;;;;;21.00;56.60;;;;;;5033837;28;19919;-61
2021/06/01 17:06:27;;;;;;;;;;;21.00;56.60;;;;;;5024884;28;20233;-59
2021/06/01 17:11:21;;;;;;;;;;;21.00;56.60;;;;;;5060238;28;19924;-63
2021/06/01 17:13:47;;;;;;;;;;;21.00;56.60;;;;;;5021385;28;19928;-60
2021/06/01 17:16:19;;;;;;;;;;;21.00;56.60;;;;;;5047940;28;19944;-62
2021/06/01 17:34:44;;;;;;;;;;;21.10;56.50;;;;;;5007769;28;19931;-62
2021/06/01 17:37:10;;;;;;;;;;;21.10;56.50;;;;;;5025259;28;19968;-63
2021/06/01 17:39:35;;;;;;;;;;;21.10;56.50;;;;;;4993569;28;19957;-62
2021/06/01 17:42:01;;;;;;;;;;;21.10;56.50;;;;;;5036465;28;20459;-63
2021/06/01 17:44:27;;;;;;;;;;;21.10;56.60;;;;;;5047095;28;19921;-63
2021/06/01 17:46:57;;;;;;;;;;;21.10;56.60;;;;;;5047141;28;19924;-63
2021/06/01 17:49:23;;;;;;;;;;;21.10;56.60;;;;;;5023853;28;19974;-63
2021/06/01 17:51:52;;;;;;;;;;;21.10;56.60;;;;;;5038828;28;19921;-63
2021/06/01 17:54:24;;;;;;;;;;;21.10;56.70;;;;;;5023134;28;20376;-61
2021/06/01 17:56:50;;;;;;;;;;;21.10;56.70;;;;;;5046441;28;19916;-62
2021/06/01 17:59:16;;;;;;;;;;;21.10;56.70;;;;;;5038890;28;19927;-62
2021/06/01 18:01:42;;;;;;;;;;;21.10;56.70;;;;;;5021147;28;19963;-62
2021/06/01 18:04:09;;;;;;;;;;;21.20;56.70;;;;;;5013367;28;19956;-61
2021/06/01 18:06:48;;;;;;;;;;;21.10;56.70;;;;;;5022657;28;19931;-61
2021/06/01 18:11:54;;;;;;;;;;;21.20;56.80;;;;;;5024866;28;20301;-62
2021/06/01 18:59:54;;;;;;;;;;;21.30;56.80;;;;;;5038184;28;19970;-61
2021/06/01 19:21:24;;;;;;;;;;;21.30;56.80;;;;;;5043476;28;19923;-61
2021/06/01 19:50:13;;;;;;;;;;;21.40;56.90;;;;;;5030781;28;19928;-61
2021/06/01 19:52:43;;;;;;;;;;;21.40;57.00;;;;;;5026567;28;19917;-61
2021/06/01 19:55:09;;;;;;;;;;;21.40;57.20;;;;;;5018999;28;20368;-63
2021/06/01 19:57:34;;;;;;;;;;;21.40;57.30;;;;;;5019544;28;19932;-63
2021/06/01 20:00:00;;;;;;;;;;;21.40;57.30;;;;;;5035072;28;19924;-62
2021/06/01 20:02:26;;;;;;;;;;;21.40;57.40;;;;;;5018383;28;20488;-60
2021/06/01 20:04:52;;;;;;;;;;;21.40;57.30;;;;;;5018500;28;19925;-62
2021/06/01 20:07:18;;;;;;;;;;;21.40;57.30;;;;;;5036690;28;20105;-60
2021/06/01 20:09:43;;;;;;;;;;;21.40;57.40;;;;;;5020988;28;20183;-63
2021/06/01 20:12:09;;;;;;;;;;;21.40;57.50;;;;;;5017462;28;19966;-63
2021/06/01 20:14:34;;;;;;;;;;;21.40;57.50;;;;;;5046299;28;20383;-63
2021/06/01 20:17:00;;;;;;;;;;;21.40;57.50;;;;;;5022030;28;20698;-59
2021/06/01 20:19:25;;;;;;;;;;;21.40;57.50;;;;;;5037817;28;20815;-60
2021/06/01 20:21:52;;;;;;;;;;;21.40;57.50;;;;;;5049175;28;19927;-58
2021/06/01 20:24:17;;;;;;;;;;;21.40;57.40;;;;;;5020050;28;20003;-62
2021/06/01 20:26:43;;;;;;;;;;;21.40;57.70;;;;;;5020388;28;19920;-62
2021/06/01 20:29:10;;;;;;;;;;;21.40;58.30;;;;;;5039470;28;19994;-60
2021/06/01 20:31:41;;;;;;;;;;;21.50;58.40;;;;;;5018759;28;20003;-61
2021/06/01 20:34:07;;;;;;;;;;;21.50;58.40;;;;;;5018731;28;20306;-61
2021/06/01 20:36:33;;;;;;;;;;;21.50;58.70;;;;;;5036460;28;19939;-59
2021/06/01 20:39:03;;;;;;;;;;;21.50;58.60;;;;;;5036168;28;19929;-60